createdAt,value
2022-12-09T00:02:15.187Z,34.58
2022-12-09T00:04:44.946Z,32.17
2022-12-09T00:07:14.087Z,34.75
2022-12-09T00:09:44.577Z,28.92
2022-12-09T00:12:14.200Z,32.40
2022-12-09T00:14:44.716Z,29.45
2022-12-09T00:17:14.246Z,28.58
2022-12-09T00:19:43.881Z,28.60
2022-12-09T00:22:14.011Z,28.17
2022-12-09T00:24:43.199Z,30.38
2022-12-09T00:27:12.244Z,27.90
2022-12-09T00:29:41.999Z,34.75
2022-12-09T00:32:12.550Z,30.80
2022-12-09T00:34:42.421Z,31.33
2022-12-09T00:37:12.216Z,31.90
2022-12-09T00:39:42.329Z,31.42
2022-12-09T00:42:11.844Z,31.98
2022-12-09T00:44:41.367Z,33.28
2022-12-09T00:47:10.628Z,30.80
2022-12-09T00:49:41.592Z,33.67
2022-12-09T00:52:11.275Z,32.15
2022-12-09T00:54:40.725Z,30.38
2022-12-09T00:57:10.121Z,32.95
2022-12-09T00:59:39.518Z,30.67
2022-12-09T04:34:40.111Z,24.42
2022-12-09T04:37:09.984Z,22.60
2022-12-09T04:39:42.036Z,24.73
2022-12-09T04:42:11.726Z,24.92
2022-12-09T04:44:42.488Z,19.23
2022-12-09T04:47:12.156Z,21.63
2022-12-09T04:49:43.071Z,19.95
2022-12-09T04:52:12.549Z,18.52
2022-12-09T04:54:42.350Z,18.15
2022-12-09T04:57:12.381Z,16.35
2022-12-09T04:59:42.026Z,17.23
2022-12-09T05:02:24.023Z,18.25
2022-12-09T05:04:54.933Z,19.45
2022-12-09T05:07:25.421Z,21.00
2022-12-09T05:09:55.407Z,18.83
2022-12-09T05:12:25.297Z,18.92
2022-12-09T05:14:55.206Z,16.58
2022-12-09T05:17:25.406Z,15.25
2022-12-09T05:19:55.868Z,16.05
2022-12-09T05:22:25.630Z,16.55
2022-12-09T05:24:56.004Z,21.58
2022-12-09T05:27:26.057Z,19.08
2022-12-09T05:29:55.446Z,18.10
2022-12-09T05:32:24.750Z,17.92
2022-12-09T05:34:56.414Z,17.88
2022-12-09T05:37:25.730Z,16.73
2022-12-09T05:39:55.238Z,18.77
2022-12-09T05:42:25.312Z,17.85
2022-12-09T05:44:55.276Z,17.35
2022-12-09T05:47:28.309Z,19.73
2022-12-09T05:50:04.380Z,17.27
2022-12-09T05:52:37.833Z,16.40
2022-12-09T05:55:08.834Z,19.17
2022-12-09T05:57:38.758Z,19.20
2022-12-09T06:00:10.012Z,18.70
2022-12-09T06:02:42.809Z,16.40
2022-12-09T06:05:16.324Z,21.30
2022-12-09T06:07:46.503Z,14.30
2022-12-09T06:10:17.527Z,23.55
2022-12-09T06:12:50.682Z,16.88
2022-12-09T06:15:21.781Z,17.40
2022-12-09T06:17:53.070Z,16.58
2022-12-09T06:20:23.956Z,20.75
2022-12-09T06:22:53.564Z,18.63
2022-12-09T06:25:25.383Z,21.30
2022-12-09T06:27:55.223Z,20.48
2022-12-09T06:30:25.284Z,20.52
2022-12-09T06:32:55.082Z,21.02
2022-12-09T06:35:26.374Z,21.33
2022-12-09T06:37:56.509Z,23.92
2022-12-09T06:40:26.559Z,23.60
2022-12-09T06:42:56.593Z,22.75
2022-12-09T06:45:26.430Z,22.13
2022-12-09T06:47:56.517Z,26.55
2022-12-09T06:50:27.931Z,20.23
2022-12-09T06:52:57.966Z,25.75
2022-12-09T06:55:28.664Z,26.42
2022-12-09T06:58:00.489Z,27.25
2022-12-09T07:00:30.304Z,26.40
2022-12-09T07:03:00.689Z,29.70
2022-12-09T07:05:33.385Z,24.05
2022-12-09T13:25:06.057Z,41.58
2022-12-09T13:50:06.237Z,42.70
2022-12-09T14:20:07.276Z,67.80
2022-12-09T14:45:08.207Z,35.95
2022-12-09T15:10:06.450Z,31.55
2022-12-09T15:35:07.010Z,33.92
2022-12-09T16:00:11.430Z,45.88
2022-12-09T16:25:14.505Z,36.78
2022-12-09T16:55:05.947Z,45.00
2022-12-09T18:25:04.988Z,57.40
2022-12-09T18:55:03.986Z,71.60
